Time;durP1;ratioP1;P1;durP2;ratioP2;P2;SDS_P1;SDS_P2;PMS_P1;PMS_P2;Temp;Humidity;BMP_temperature;BMP_pressure;BME280_temperature;BME280_humidity;BME280_pressure;Samples;Min_cycle;Max_cycle;Signal;HPM_P1;HPM_P2
2024/01/26 06:00:57;;;;;;;;;;;;;;;;;;5730430;23;20375;-44
2024/01/26 06:03:23;;;;;;;;;;;;;;;;;;4972537;28;20005;-44
2024/01/26 06:05:48;;;;;;;;;;;;;;;;;;4972516;28;19921;-43
2024/01/26 06:08:14;;;;;;;;;;;;;;;;;;4972373;28;20045;-44
2024/01/26 06:10:40;;;;;;;;;;;;;;;;;;4972831;28;19921;-44
2024/01/26 06:13:06;;;;;;;;;;;;;;;;;;4972766;28;19945;-43
2024/01/26 06:15:32;;;;;;;;;;;;;;;;;;4972455;28;19965;-42
2024/01/26 06:17:58;;;;;;;;;;;;;;;;;;4972236;28;20008;-44
2024/01/26 06:20:24;;;;;;;;;;;;;;;;;;4972762;28;19910;-43
2024/01/26 06:22:50;;;;;;;;;;;;;;;;;;4972582;28;20329;-43
2024/01/26 06:25:16;;;;;;;;;;;;;;;;;;4972403;28;19914;-44
2024/01/26 06:27:41;;;;;;;;;;;;;;;;;;4972261;28;19918;-43
2024/01/26 06:30:08;;;;;;;;;;;;;;;;;;4972467;28;20262;-43
2024/01/26 06:32:34;;;;;;;;;;;;;;;;;;4972424;28;19977;-43
2024/01/26 06:35:00;;;;;;;;;;;;;;;;;;4972327;28;19914;-43
2024/01/26 06:37:26;;;;;;;;;;;;;;;;;;4972129;28;19914;-43
2024/01/26 06:39:52;;;;;;;;;;;;;;;;;;4971735;28;19950;-45
2024/01/26 06:42:25;;;;;;;;;;;;;;;;;;4972243;28;19961;-43
2024/01/26 06:44:52;;;;;;;;;;;;;;;;;;4972009;28;19910;-43
2024/01/26 06:47:18;;;;;;;;;;;;;;;;;;4972172;28;20001;-42
2024/01/26 06:49:44;;;;;;;;;;;;;;;;;;4971708;28;19949;-43
2024/01/26 06:52:10;;;;;;;;;;;;;;;;;;4972030;28;20393;-42
2024/01/26 06:54:38;;;;;;;;;;;;;;;;;;4972103;28;19914;-43
2024/01/26 06:57:03;;;;;;;;;;;;;;;;;;4971463;28;19911;-42
2024/01/26 06:59:29;;;;;;;;;;;;;;;;;;4971497;28;19914;-43
2024/01/26 07:01:55;;;;;;;;;;;;;;;;;;4971648;28;19973;-44
2024/01/26 07:04:21;;;;;;;;;;;;;;;;;;4971646;28;20329;-43
2024/01/26 07:06:47;;;;;;;;;;;;;;;;;;4971685;28;19911;-43
2024/01/26 07:09:13;;;;;;;;;;;;;;;;;;4971216;28;19910;-43
2024/01/26 07:11:39;;;;;;;;;;;;;;;;;;4971707;28;19989;-43
2024/01/26 07:14:05;;;;;;;;;;;;;;;;;;4974990;28;19918;-43
2024/01/26 07:16:30;;;;;;;;;;;;;;;;;;4974788;28;19922;-43
2024/01/26 07:18:56;;;;;;;;;;;;;;;;;;4973960;28;19914;-44
2024/01/26 07:21:22;;;;;;;;;;;;;;;;;;4978751;28;19918;-43
2024/01/26 07:23:49;;;;;;;;;;;;;;;;;;4971043;28;19919;-43
2024/01/26 07:26:15;;;;;;;;;;;;;;;;;;4974504;28;19910;-44
2024/01/26 07:28:41;;;;;;;;;;;;;;;;;;4971767;28;20005;-43
2024/01/26 07:31:07;;;;;;;;;;;;;;;;;;4970514;28;19969;-44
2024/01/26 07:33:32;;;;;;;;;;;;;;;;;;4966087;28;20332;-43
2024/01/26 07:35:58;;;;;;;;;;;;;;;;;;4970896;28;20013;-43
2024/01/26 07:38:24;;;;;;;;;;;;;;;;;;4971433;28;19969;-43
2024/01/26 07:40:50;;;;;;;;;;;;;;;;;;4972140;28;19910;-42
2024/01/26 07:43:16;;;;;;;;;;;;;;;;;;4970132;28;19948;-42
2024/01/26 07:45:42;;;;;;;;;;;;;;;;;;4969000;28;19921;-43
2024/01/26 07:48:12;;;;;;;;;;;;;;;;;;4972358;28;19965;-44
2024/01/26 07:50:37;;;;;;;;;;;;;;;;;;4972287;28;19933;-43
2024/01/26 07:53:03;;;;;;;;;;;;;;;;;;4970638;28;19918;-42
2024/01/26 07:55:29;;;;;;;;;;;;;;;;;;4971168;28;19914;-43
2024/01/26 07:57:55;;;;;;;;;;;;;;;;;;4969837;28;19918;-43
2024/01/26 08:00:21;;;;;;;;;;;;;;;;;;4973994;28;19922;-44
2024/01/26 08:02:47;;;;;;;;;;;;;;;;;;4967573;28;20434;-43
2024/01/26 08:05:13;;;;;;;;;;;;;;;;;;4970419;28;19921;-44
2024/01/26 08:07:39;;;;;;;;;;;;;;;;;;4971549;28;19961;-44
2024/01/26 08:10:05;;;;;;;;;;;;;;;;;;4971359;28;19911;-43
2024/01/26 08:12:31;;;;;;;;;;;;;;;;;;4971060;28;19934;-43
2024/01/26 08:14:57;;;;;;;;;;;;;;;;;;4971745;28;19914;-43
2024/01/26 08:17:23;;;;;;;;;;;;;;;;;;4971474;28;20274;-43
2024/01/26 08:19:49;;;;;;;;;;;;;;;;;;4970813;28;19910;-43
2024/01/26 08:22:15;;;;;;;;;;;;;;;;;;4969301;28;19915;-43
2024/01/26 08:24:41;;;;;;;;;;;;;;;;;;4971086;28;19933;-43
2024/01/26 08:27:07;;;;;;;;;;;;;;;;;;4972165;28;19911;-43
2024/01/26 08:29:33;;;;;;;;;;;;;;;;;;4972323;28;19948;-43
2024/01/26 08:31:59;;;;;;;;;;;;;;;;;;4975659;28;19917;-43
2024/01/26 08:34:25;;;;;;;;;;;;;;;;;;4970349;28;19918;-43
2024/01/26 08:36:51;;;;;;;;;;;;;;;;;;4970129;28;19920;-43
2024/01/26 08:39:17;;;;;;;;;;;;;;;;;;4970811;28;19996;-44
2024/01/26 08:41:43;;;;;;;;;;;;;;;;;;4970926;28;19914;-43
2024/01/26 08:44:09;;;;;;;;;;;;;;;;;;4971792;28;20379;-46
2024/01/26 08:46:35;;;;;;;;;;;;;;;;;;4971763;28;20436;-44
2024/01/26 08:49:02;;;;;;;;;;;;;;;;;;4971394;28;19910;-44
2024/01/26 08:51:29;;;;;;;;;;;;;;;;;;4970950;28;20311;-43
2024/01/26 08:53:55;;;;;;;;;;;;;;;;;;4971398;28;19918;-44
2024/01/26 08:56:21;;;;;;;;;;;;;;;;;;4971214;28;19918;-43
2024/01/26 08:58:46;;;;;;;;;;;;;;;;;;4971466;28;19965;-45
2024/01/26 09:01:12;;;;;;;;;;;;;;;;;;4970431;28;19922;-44
2024/01/26 09:03:38;;;;;;;;;;;;;;;;;;4970837;28;19922;-44
2024/01/26 09:06:04;;;;;;;;;;;;;;;;;;4974851;28;19957;-44
2024/01/26 09:08:30;;;;;;;;;;;;;;;;;;4974987;28;19980;-44
2024/01/26 09:10:56;;;;;;;;;;;;;;;;;;4974125;28;19914;-44
2024/01/26 09:13:22;;;;;;;;;;;;;;;;;;4973493;28;19923;-43
2024/01/26 09:15:48;;;;;;;;;;;;;;;;;;4974880;28;19910;-43
2024/01/26 09:18:14;;;;;;;;;;;;;;;;;;4973881;28;19945;-44
2024/01/26 09:20:39;;;;;;;;;;;;;;;;;;4975047;28;20008;-43
2024/01/26 09:23:05;;;;;;;;;;;;;;;;;;4973347;28;20358;-45
2024/01/26 09:25:31;;;;;;;;;;;;;;;;;;4973503;28;19914;-43
2024/01/26 09:27:57;;;;;;;;;;;;;;;;;;4973674;28;20034;-43
2024/01/26 09:30:23;;;;;;;;;;;;;;;;;;4974422;28;19916;-44
2024/01/26 09:32:49;;;;;;;;;;;;;;;;;;4957211;28;20329;-43
2024/01/26 09:35:15;;;;;;;;;;;;;;;;;;4974326;28;19917;-43
2024/01/26 09:37:41;;;;;;;;;;;;;;;;;;4973911;28;19960;-44
2024/01/26 09:40:06;;;;;;;;;;;;;;;;;;4973112;28;19949;-43
2024/01/26 09:42:32;;;;;;;;;;;;;;;;;;4973914;28;19918;-44
2024/01/26 09:45:01;;;;;;;;;;;;;;;;;;4956199;28;19914;-43
2024/01/26 09:47:27;;;;;;;;;;;;;;;;;;4973288;28;19914;-44
2024/01/26 09:49:53;;;;;;;;;;;;;;;;;;4973850;28;20695;-44
2024/01/26 09:52:19;;;;;;;;;;;;;;;;;;4973931;28;20008;-44
2024/01/26 09:54:45;;;;;;;;;;;;;;;;;;4970075;28;19914;-43
2024/01/26 09:57:11;;;;;;;;;;;;;;;;;;4974319;28;20488;-44
2024/01/26 09:59:37;;;;;;;;;;;;;;;;;;4974284;28;19946;-43
2024/01/26 10:02:03;;;;;;;;;;;;;;;;;;4972082;28;20312;-45
2024/01/26 10:04:29;;;;;;;;;;;;;;;;;;4973410;28;20040;-43
2024/01/26 10:06:55;;;;;;;;;;;;;;;;;;4969373;28;19914;-44
2024/01/26 10:09:21;;;;;;;;;;;;;;;;;;4969780;28;20309;-45
2024/01/26 10:11:47;;;;;;;;;;;;;;;;;;4961306;28;19917;-43
2024/01/26 10:14:13;;;;;;;;;;;;;;;;;;4953382;28;19970;-43
2024/01/26 10:16:39;;;;;;;;;;;;;;;;;;4953596;28;20341;-44
2024/01/26 10:19:04;;;;;;;;;;;;;;;;;;4953162;28;19910;-45
2024/01/26 10:21:30;;;;;;;;;;;;;;;;;;5541969;23;19925;-53
2024/01/26 10:23:56;;;;;;;;;;;;;;;;;;5010516;28;19909;-49
2024/01/26 10:26:22;;;;;;;;;;;;;;;;;;5010787;28;19913;-52
2024/01/26 10:28:48;;;;;;;;;;;;;;;;;;5010597;28;19910;-52
2024/01/26 10:31:14;;;;;;;;;;;;;;;;;;5010717;28;19917;-53
2024/01/26 10:33:40;;;;;;;;;;;;;;;;;;5010729;28;19976;-53
2024/01/26 10:36:06;;;;;;;;;;;;;;;;;;5010289;28;19909;-50
2024/01/26 10:38:32;;;;;;;;;;;;;;;;;;5010375;28;19920;-52
2024/01/26 10:40:58;;;;;;;;;;;;;;;;;;5010303;28;19956;-50
2024/01/26 10:43:24;;;;;;;;;;;;;;;;;;5010231;28;19917;-53
2024/01/26 10:45:50;;;;;;;;;;;;;;;;;;5010104;28;19968;-49
2024/01/26 10:48:16;;;;;;;;;;;;;;;;;;5010298;28;19916;-52
2024/01/26 10:50:42;;;;;;;;;;;;;;;;;;5010490;28;19941;-52
2024/01/26 10:53:07;;;;;;;;;;;;;;;;;;5010306;28;20379;-52
2024/01/26 10:55:33;;;;;;;;;;;;;;;;;;5009907;28;19918;-52
2024/01/26 10:57:59;;;;;;;;;;;;;;;;;;5010141;28;19980;-51
2024/01/26 11:00:25;;;;;;;;;;;;;;;;;;5009838;28;20008;-52
2024/01/26 11:02:51;;;;;;;;;;;;;;;;;;5009945;28;20571;-52
2024/01/26 11:05:17;;;;;;;;;;;;;;;;;;5009868;28;19936;-52
2024/01/26 11:07:44;;;;;;;;;;;;;;;;;;5009567;28;19924;-51
2024/01/26 11:10:10;;;;;;;;;;;;;;;;;;5010053;28;19916;-52
2024/01/26 11:12:36;;;;;;;;;;;;;;;;;;5009665;28;19917;-51
2024/01/26 11:15:02;;;;;;;;;;;;;;;;;;5009886;28;19964;-51
2024/01/26 11:17:28;;;;;;;;;;;;;;;;;;5006711;28;19917;-50
2024/01/26 11:19:53;;;;;;;;;;;;;;;;;;5008254;28;19913;-49
2024/01/26 11:22:19;;;;;;;;;;;;;;;;;;5007704;28;20320;-52
2024/01/26 11:24:45;;;;;;;;;;;;;;;;;;5007976;28;19909;-52
2024/01/26 11:27:11;;;;;;;;;;;;;;;;;;5007323;28;19910;-53
2024/01/26 11:29:37;;;;;;;;;;;;;;;;;;5008546;28;19944;-52
2024/01/26 11:32:03;;;;;;;;;;;;;;;;;;5007785;28;20012;-52
2024/01/26 11:34:29;;;;;;;;;;;;;;;;;;5007730;28;20004;-52
2024/01/26 11:36:55;;;;;;;;;;;;;;;;;;5007367;28;20287;-51
2024/01/26 11:39:21;;;;;;;;;;;;;;;;;;5007856;28;19949;-52
2024/01/26 11:41:46;;;;;;;;;;;;;;;;;;5007640;28;19913;-52
2024/01/26 11:44:12;;;;;;;;;;;;;;;;;;5007467;28;20639;-52
2024/01/26 11:46:38;;;;;;;;;;;;;;;;;;5008030;28;19913;-51
2024/01/26 11:49:04;;;;;;;;;;;;;;;;;;5007471;28;19910;-49
2024/01/26 11:51:30;;;;;;;;;;;;;;;;;;5007355;28;20009;-51
2024/01/26 11:53:56;;;;;;;;;;;;;;;;;;5007422;28;19968;-49
2024/01/26 11:56:22;;;;;;;;;;;;;;;;;;5007325;28;20299;-50
2024/01/26 11:58:48;;;;;;;;;;;;;;;;;;5007761;28;19917;-52
2024/01/26 12:01:13;;;;;;;;;;;;;;;;;;5007310;28;20007;-51
2024/01/26 12:03:40;;;;;;;;;;;;;;;;;;5008050;28;19914;-53
2024/01/26 12:06:06;;;;;;;;;;;;;;;;;;5007816;28;20368;-49
2024/01/26 12:08:32;;;;;;;;;;;;;;;;;;5007294;28;19916;-52
2024/01/26 12:10:59;;;;;;;;;;;;;;;;;;5007320;28;20028;-51
2024/01/26 12:13:25;;;;;;;;;;;;;;;;;;5007097;28;19914;-50
2024/01/26 12:15:51;;;;;;;;;;;;;;;;;;5006634;28;19925;-53
2024/01/26 12:18:17;;;;;;;;;;;;;;;;;;5006617;28;19917;-53
2024/01/26 12:20:43;;;;;;;;;;;;;;;;;;5007895;28;20019;-53
2024/01/26 12:23:09;;;;;;;;;;;;;;;;;;5006055;28;19921;-50
2024/01/26 12:25:34;;;;;;;;;;;;;;;;;;5006119;28;19949;-50
2024/01/26 12:28:02;;;;;;;;;;;;;;;;;;5006556;28;20417;-53
2024/01/26 12:30:28;;;;;;;;;;;;;;;;;;5006172;28;19916;-50
2024/01/26 12:32:54;;;;;;;;;;;;;;;;;;4993738;28;19914;-48
2024/01/26 12:35:20;;;;;;;;;;;;;;;;;;5006756;28;19909;-49
2024/01/26 12:37:46;;;;;;;;;;;;;;;;;;5007072;28;19933;-51
2024/01/26 12:40:12;;;;;;;;;;;;;;;;;;5009366;28;19997;-50
2024/01/26 12:42:38;;;;;;;;;;;;;;;;;;5009922;28;20089;-51
2024/01/26 12:45:04;;;;;;;;;;;;;;;;;;5006929;28;19926;-51
2024/01/26 12:47:31;;;;;;;;;;;;;;;;;;5010313;28;19953;-52
2024/01/26 12:49:57;;;;;;;;;;;;;;;;;;5009329;28;19960;-49
2024/01/26 12:52:23;;;;;;;;;;;;;;;;;;5010258;28;19914;-52
2024/01/26 12:54:54;;;;;;;;;;;;;;;;;;5010186;28;20265;-50
2024/01/26 12:57:20;;;;;;;;;;;;;;;;;;5008922;28;19910;-51
2024/01/26 12:59:47;;;;;;;;;;;;;;;;;;5008731;28;19918;-52
2024/01/26 13:02:14;;;;;;;;;;;;;;;;;;5009291;28;20372;-49
2024/01/26 13:04:42;;;;;;;;;;;;;;;;;;5009316;28;20291;-52
2024/01/26 13:07:08;;;;;;;;;;;;;;;;;;5010719;28;20427;-52
2024/01/26 13:09:34;;;;;;;;;;;;;;;;;;5008962;28;20269;-52
2024/01/26 13:12:03;;;;;;;;;;;;;;;;;;5009516;28;19909;-52
2024/01/26 13:14:28;;;;;;;;;;;;;;;;;;4998853;28;19920;-52
2024/01/26 13:16:54;;;;;;;;;;;;;;;;;;5009286;28;19913;-53
2024/01/26 13:19:20;;;;;;;;;;;;;;;;;;5009835;28;20237;-52
2024/01/26 13:21:48;;;;;;;;;;;;;;;;;;5009433;28;19918;-53
2024/01/26 13:24:14;;;;;;;;;;;;;;;;;;5009729;28;20000;-52
2024/01/26 13:26:42;;;;;;;;;;;;;;;;;;5009520;28;20376;-51
2024/01/26 13:29:08;;;;;;;;;;;;;;;;;;5008342;28;19921;-50
2024/01/26 13:31:34;;;;;;;;;;;;;;;;;;5008969;28;19910;-50
2024/01/26 13:34:00;;;;;;;;;;;;;;;;;;5009378;28;19914;-51
2024/01/26 13:36:26;;;;;;;;;;;;;;;;;;5007750;28;19920;-51
2024/01/26 13:38:52;;;;;;;;;;;;;;;;;;5009654;28;20601;-52
2024/01/26 13:41:17;;;;;;;;;;;;;;;;;;4991814;28;19949;-50
2024/01/26 13:43:43;;;;;;;;;;;;;;;;;;5008948;28;19921;-50
2024/01/26 13:46:10;;;;;;;;;;;;;;;;;;5009386;28;19909;-49
2024/01/26 13:48:37;;;;;;;;;;;;;;;;;;4990258;28;19909;-52
2024/01/26 13:51:05;;;;;;;;;;;;;;;;;;4988851;28;19914;-51
2024/01/26 13:53:31;;;;;;;;;;;;;;;;;;4989523;28;19913;-50
2024/01/26 13:55:57;;;;;;;;;;;;;;;;;;4989460;28;19945;-51
2024/01/26 13:58:23;;;;;;;;;;;;;;;;;;5003587;28;20384;-52
2024/01/26 14:00:49;;;;;;;;;;;;;;;;;;5008311;28;20025;-52
2024/01/26 14:03:15;;;;;;;;;;;;;;;;;;5009085;28;20466;-52
2024/01/26 14:05:41;;;;;;;;;;;;;;;;;;5007532;28;19910;-49
2024/01/26 14:08:07;;;;;;;;;;;;;;;;;;5007871;28;20388;-49
2024/01/26 14:10:33;;;;;;;;;;;;;;;;;;5008766;28;19910;-52
2024/01/26 14:12:58;;;;;;;;;;;;;;;;;;5007168;28;19976;-53
2024/01/26 14:15:24;;;;;;;;;;;;;;;;;;4992034;28;19910;-53
2024/01/26 14:17:50;;;;;;;;;;;;;;;;;;5001839;28;19917;-52
2024/01/26 14:20:21;;;;;;;;;;;;;;;;;;4991571;28;19921;-51
2024/01/26 14:22:48;;;;;;;;;;;;;;;;;;4990571;28;19921;-50
2024/01/26 14:25:14;;;;;;;;;;;;;;;;;;5008235;28;20021;-53
2024/01/26 14:27:40;;;;;;;;;;;;;;;;;;5008080;28;20004;-52
2024/01/26 14:30:10;;;;;;;;;;;;;;;;;;5008322;28;19909;-52
2024/01/26 14:32:36;;;;;;;;;;;;;;;;;;5007399;28;19940;-51
2024/01/26 14:35:05;;;;;;;;;;;;;;;;;;5008563;28;19913;-52
2024/01/26 14:37:31;;;;;;;;;;;;;;;;;;5007741;28;20366;-52
2024/01/26 14:39:57;;;;;;;;;;;;;;;;;;5008082;28;20010;-51
2024/01/26 14:42:23;;;;;;;;;;;;;;;;;;5008936;28;19913;-49
2024/01/26 14:44:49;;;;;;;;;;;;;;;;;;5006754;28;20289;-52
2024/01/26 14:47:15;;;;;;;;;;;;;;;;;;5008205;28;19913;-50
2024/01/26 14:49:41;;;;;;;;;;;;;;;;;;5007472;28;20011;-51
2024/01/26 14:52:08;;;;;;;;;;;;;;;;;;5008188;28;19932;-49
2024/01/26 14:54:34;;;;;;;;;;;;;;;;;;5006599;28;19944;-52
2024/01/26 14:57:00;;;;;;;;;;;;;;;;;;5007892;28;19914;-53
2024/01/26 14:59:27;;;;;;;;;;;;;;;;;;5007612;28;19997;-52
2024/01/26 15:01:53;;;;;;;;;;;;;;;;;;4990798;28;19914;-53
2024/01/26 15:04:19;;;;;;;;;;;;;;;;;;5007894;28;19916;-49
2024/01/26 15:06:45;;;;;;;;;;;;;;;;;;5007635;28;19909;-52
2024/01/26 15:09:11;;;;;;;;;;;;;;;;;;5007797;28;19916;-50
2024/01/26 15:11:37;;;;;;;;;;;;;;;;;;5006316;28;20380;-49
2024/01/26 15:14:03;;;;;;;;;;;;;;;;;;5008055;28;19992;-53
2024/01/26 15:16:33;;;;;;;;;;;;;;;;;;5006377;28;19914;-49
2024/01/26 15:18:58;;;;;;;;;;;;;;;;;;5002142;28;20092;-52
2024/01/26 15:21:24;;;;;;;;;;;;;;;;;;4991237;28;19999;-51
2024/01/26 15:23:50;;;;;;;;;;;;;;;;;;5008548;28;19909;-51
2024/01/26 15:26:16;;;;;;;;;;;;;;;;;;5009107;28;19909;-52
2024/01/26 15:28:42;;;;;;;;;;;;;;;;;;5007504;28;19956;-50
2024/01/26 15:31:08;;;;;;;;;;;;;;;;;;5006034;28;19968;-51
2024/01/26 15:33:34;;;;;;;;;;;;;;;;;;5006418;28;19918;-52
2024/01/26 15:36:00;;;;;;;;;;;;;;;;;;5008838;28;19917;-52
2024/01/26 15:38:26;;;;;;;;;;;;;;;;;;5007784;28;19913;-50
2024/01/26 15:40:52;;;;;;;;;;;;;;;;;;5007386;28;19977;-53
2024/01/26 15:43:18;;;;;;;;;;;;;;;;;;5007393;28;19917;-52
2024/01/26 15:45:43;;;;;;;;;;;;;;;;;;4990624;28;19921;-52
2024/01/26 15:48:10;;;;;;;;;;;;;;;;;;5007432;28;19914;-51
2024/01/26 15:50:35;;;;;;;;;;;;;;;;;;5008503;28;20368;-52
2024/01/26 15:53:01;;;;;;;;;;;;;;;;;;5007483;28;19960;-53
2024/01/26 15:55:27;;;;;;;;;;;;;;;;;;4990875;28;19948;-53
2024/01/26 15:57:53;;;;;;;;;;;;;;;;;;5008088;28;20314;-50
2024/01/26 16:00:19;;;;;;;;;;;;;;;;;;5007309;28;19914;-52
2024/01/26 16:02:45;;;;;;;;;;;;;;;;;;5002877;28;20402;-51
2024/01/26 16:05:11;;;;;;;;;;;;;;;;;;5007307;28;20292;-53
2024/01/26 16:07:37;;;;;;;;;;;;;;;;;;5007887;28;19909;-51
2024/01/26 16:10:03;;;;;;;;;;;;;;;;;;5000083;28;19941;-52
2024/01/26 16:12:29;;;;;;;;;;;;;;;;;;5007542;28;19961;-51
2024/01/26 16:14:55;;;;;;;;;;;;;;;;;;5007320;28;20384;-52
2024/01/26 16:17:21;;;;;;;;;;;;;;;;;;5006444;28;19914;-52
2024/01/26 16:19:46;;;;;;;;;;;;;;;;;;5007351;28;19951;-50
2024/01/26 16:22:12;;;;;;;;;;;;;;;;;;5008033;28;19925;-52
2024/01/26 16:24:38;;;;;;;;;;;;;;;;;;5006789;28;19913;-49
2024/01/26 16:27:04;;;;;;;;;;;;;;;;;;5007890;28;19949;-51
2024/01/26 16:29:30;;;;;;;;;;;;;;;;;;5007662;28;20004;-52
2024/01/26 16:31:56;;;;;;;;;;;;;;;;;;5007659;28;19909;-50
2024/01/26 16:34:22;;;;;;;;;;;;;;;;;;5007770;28;19922;-53
2024/01/26 16:36:48;;;;;;;;;;;;;;;;;;4990104;28;20296;-52
2024/01/26 16:39:13;;;;;;;;;;;;;;;;;;4989169;28;19918;-53
2024/01/26 16:41:39;;;;;;;;;;;;;;;;;;5008080;28;19968;-54
2024/01/26 16:44:05;;;;;;;;;;;;;;;;;;5008059;28;19914;-51
2024/01/26 16:46:31;;;;;;;;;;;;;;;;;;5006703;28;20316;-51
2024/01/26 16:48:58;;;;;;;;;;;;;;;;;;5006220;28;19914;-50
2024/01/26 16:51:24;;;;;;;;;;;;;;;;;;5007982;28;19921;-53
2024/01/26 16:53:50;;;;;;;;;;;;;;;;;;4985520;28;19925;-53
2024/01/26 16:56:16;;;;;;;;;;;;;;;;;;5007703;28;20004;-51
2024/01/26 16:58:42;;;;;;;;;;;;;;;;;;5005492;28;20020;-49
2024/01/26 17:01:08;;;;;;;;;;;;;;;;;;5008059;28;20044;-53
2024/01/26 17:03:34;;;;;;;;;;;;;;;;;;5008693;28;19920;-50
2024/01/26 17:05:59;;;;;;;;;;;;;;;;;;5007079;28;20390;-51
2024/01/26 17:08:29;;;;;;;;;;;;;;;;;;4989151;28;19909;-51
2024/01/26 17:10:55;;;;;;;;;;;;;;;;;;4988859;28;19910;-50
2024/01/26 17:13:21;;;;;;;;;;;;;;;;;;4991853;28;19918;-52
2024/01/26 17:15:46;;;;;;;;;;;;;;;;;;5008461;28;19924;-51
2024/01/26 17:18:12;;;;;;;;;;;;;;;;;;5008801;28;19996;-51
2024/01/26 17:20:38;;;;;;;;;;;;;;;;;;5008918;28;19910;-51
2024/01/26 17:23:04;;;;;;;;;;;;;;;;;;5008551;28;19964;-49
2024/01/26 17:25:30;;;;;;;;;;;;;;;;;;5009264;28;19920;-51
2024/01/26 17:27:56;;;;;;;;;;;;;;;;;;5012028;28;19963;-52
2024/01/26 17:30:22;;;;;;;;;;;;;;;;;;5010552;28;20048;-51
2024/01/26 17:32:48;;;;;;;;;;;;;;;;;;5011554;28;19931;-52
2024/01/26 17:35:13;;;;;;;;;;;;;;;;;;5011980;28;19914;-51
2024/01/26 17:37:39;;;;;;;;;;;;;;;;;;5010802;28;20430;-51
2024/01/26 17:40:05;;;;;;;;;;;;;;;;;;5007685;28;19952;-49
2024/01/26 17:42:31;;;;;;;;;;;;;;;;;;5011742;28;20264;-51
2024/01/26 17:44:57;;;;;;;;;;;;;;;;;;5011705;28;19909;-51
2024/01/26 17:47:24;;;;;;;;;;;;;;;;;;5009564;28;19975;-52
2024/01/26 17:49:50;;;;;;;;;;;;;;;;;;5011735;28;20257;-51
2024/01/26 17:52:16;;;;;;;;;;;;;;;;;;5011457;28;19957;-52
2024/01/26 17:54:42;;;;;;;;;;;;;;;;;;5012287;28;19949;-51
2024/01/26 17:57:07;;;;;;;;;;;;;;;;;;5012013;28;19948;-53
2024/01/26 17:59:34;;;;;;;;;;;;;;;;;;5011476;28;19956;-49
2024/01/26 18:02:00;;;;;;;;;;;;;;;;;;5009202;28;19925;-52
2024/01/26 18:04:26;;;;;;;;;;;;;;;;;;5009053;28;19919;-52
2024/01/26 18:06:52;;;;;;;;;;;;;;;;;;5011240;28;19971;-52
2024/01/26 18:09:18;;;;;;;;;;;;;;;;;;5009221;28;19920;-52
2024/01/26 18:11:43;;;;;;;;;;;;;;;;;;5010927;28;19913;-51
2024/01/26 18:14:10;;;;;;;;;;;;;;;;;;5011485;28;19914;-52
2024/01/26 18:16:37;;;;;;;;;;;;;;;;;;5010123;28;20218;-49
2024/01/26 18:19:03;;;;;;;;;;;;;;;;;;5009216;28;19968;-51
2024/01/26 18:21:32;;;;;;;;;;;;;;;;;;5007058;28;20335;-52
2024/01/26 18:23:58;;;;;;;;;;;;;;;;;;5006883;28;19917;-50
2024/01/26 18:26:24;;;;;;;;;;;;;;;;;;5007905;28;19976;-52
2024/01/26 18:28:50;;;;;;;;;;;;;;;;;;5006866;28;19913;-48
2024/01/26 18:31:16;;;;;;;;;;;;;;;;;;5008324;28;20004;-52
2024/01/26 18:33:42;;;;;;;;;;;;;;;;;;5006460;28;19977;-47
2024/01/26 18:36:09;;;;;;;;;;;;;;;;;;5004159;28;19981;-49
2024/01/26 18:38:35;;;;;;;;;;;;;;;;;;5005686;28;19920;-48
2024/01/26 18:41:01;;;;;;;;;;;;;;;;;;5005778;28;19913;-51
2024/01/26 18:43:26;;;;;;;;;;;;;;;;;;5006536;28;19917;-48
2024/01/26 18:45:52;;;;;;;;;;;;;;;;;;5008606;28;19960;-49
2024/01/26 18:48:18;;;;;;;;;;;;;;;;;;5007651;28;19913;-49
2024/01/26 18:50:44;;;;;;;;;;;;;;;;;;5007342;28;19952;-49
2024/01/26 18:53:10;;;;;;;;;;;;;;;;;;5008732;28;19961;-50
2024/01/26 18:55:36;;;;;;;;;;;;;;;;;;5006538;28;19919;-49
2024/01/26 18:58:02;;;;;;;;;;;;;;;;;;5007523;28;19940;-49
2024/01/26 19:00:29;;;;;;;;;;;;;;;;;;5002848;28;19921;-49
2024/01/26 19:02:55;;;;;;;;;;;;;;;;;;5005770;28;19976;-50
2024/01/26 19:05:24;;;;;;;;;;;;;;;;;;5006501;28;19913;-50
2024/01/26 19:07:50;;;;;;;;;;;;;;;;;;5004683;28;19918;-49
2024/01/26 19:10:15;;;;;;;;;;;;;;;;;;5003486;28;19968;-50
2024/01/26 19:12:43;;;;;;;;;;;;;;;;;;5006017;28;20301;-50
2024/01/26 19:15:09;;;;;;;;;;;;;;;;;;4989525;28;20377;-50
2024/01/26 19:17:35;;;;;;;;;;;;;;;;;;5002239;28;19929;-50
2024/01/26 19:20:04;;;;;;;;;;;;;;;;;;5004234;28;19921;-50
2024/01/26 19:22:29;;;;;;;;;;;;;;;;;;5006995;28;19921;-51
2024/01/26 19:24:57;;;;;;;;;;;;;;;;;;5005760;28;20293;-49
2024/01/26 19:27:23;;;;;;;;;;;;;;;;;;5005314;28;19920;-48
2024/01/26 19:29:49;;;;;;;;;;;;;;;;;;4999870;28;19918;-47
2024/01/26 19:32:15;;;;;;;;;;;;;;;;;;5000494;28;20384;-51
2024/01/26 19:34:41;;;;;;;;;;;;;;;;;;5007208;28;19917;-50
2024/01/26 19:37:07;;;;;;;;;;;;;;;;;;5005032;28;20235;-49
2024/01/26 19:39:33;;;;;;;;;;;;;;;;;;4985677;28;19940;-50
2024/01/26 19:42:00;;;;;;;;;;;;;;;;;;5003440;28;20004;-51
2024/01/26 19:44:26;;;;;;;;;;;;;;;;;;5003490;28;19917;-47
2024/01/26 19:46:52;;;;;;;;;;;;;;;;;;5005884;28;19952;-49
2024/01/26 19:49:18;;;;;;;;;;;;;;;;;;5006439;28;19999;-47
2024/01/26 19:51:44;;;;;;;;;;;;;;;;;;5004175;28;20380;-49
2024/01/26 19:54:10;;;;;;;;;;;;;;;;;;5005135;28;19917;-48
2024/01/26 19:56:37;;;;;;;;;;;;;;;;;;4988495;28;19921;-50
2024/01/26 19:59:04;;;;;;;;;;;;;;;;;;5005687;28;19924;-48
2024/01/26 20:01:30;;;;;;;;;;;;;;;;;;5005686;28;19913;-47
2024/01/26 20:03:56;;;;;;;;;;;;;;;;;;5005723;28;19921;-48
2024/01/26 20:06:21;;;;;;;;;;;;;;;;;;5004716;28;19936;-52
2024/01/26 20:08:47;;;;;;;;;;;;;;;;;;5002947;28;20380;-47
2024/01/26 20:11:15;;;;;;;;;;;;;;;;;;5006012;28;19913;-48
2024/01/26 20:13:40;;;;;;;;;;;;;;;;;;5003729;28;19943;-49
2024/01/26 20:16:07;;;;;;;;;;;;;;;;;;4987604;28;19913;-48
2024/01/26 20:18:33;;;;;;;;;;;;;;;;;;5005723;28;19918;-48
2024/01/26 20:21:01;;;;;;;;;;;;;;;;;;5004765;28;19921;-48
2024/01/26 20:23:29;;;;;;;;;;;;;;;;;;5000326;28;20384;-49
2024/01/26 20:25:56;;;;;;;;;;;;;;;;;;5005492;28;19913;-51
2024/01/26 20:28:23;;;;;;;;;;;;;;;;;;5004542;28;19913;-48
2024/01/26 20:30:49;;;;;;;;;;;;;;;;;;5004141;28;20463;-51
2024/01/26 20:33:15;;;;;;;;;;;;;;;;;;5003432;28;19922;-50
2024/01/26 20:35:41;;;;;;;;;;;;;;;;;;5005994;28;19917;-51
2024/01/26 20:38:07;;;;;;;;;;;;;;;;;;4992262;28;19917;-50
2024/01/26 20:40:33;;;;;;;;;;;;;;;;;;5000972;28;19918;-52
2024/01/26 20:43:01;;;;;;;;;;;;;;;;;;5004869;28;19958;-50
2024/01/26 20:45:27;;;;;;;;;;;;;;;;;;5006247;28;19920;-48
2024/01/26 20:47:53;;;;;;;;;;;;;;;;;;5004509;28;19925;-49
2024/01/26 20:50:23;;;;;;;;;;;;;;;;;;5005119;28;20295;-48
2024/01/26 20:52:49;;;;;;;;;;;;;;;;;;5004457;28;19913;-48
2024/01/26 20:55:17;;;;;;;;;;;;;;;;;;5003536;28;19913;-50
2024/01/26 20:57:50;;;;;;;;;;;;;;;;;;5006540;28;19918;-47
2024/01/26 21:00:16;;;;;;;;;;;;;;;;;;5006011;28;19930;-51
2024/01/26 21:02:41;;;;;;;;;;;;;;;;;;5008609;28;19940;-48
2024/01/26 21:05:07;;;;;;;;;;;;;;;;;;5006670;28;19921;-48
2024/01/26 21:07:33;;;;;;;;;;;;;;;;;;5009276;28;19924;-48
2024/01/26 21:09:59;;;;;;;;;;;;;;;;;;5009961;28;20115;-47
2024/01/26 21:12:25;;;;;;;;;;;;;;;;;;5010082;28;20225;-51
2024/01/26 21:14:51;;;;;;;;;;;;;;;;;;5007245;28;19971;-50
2024/01/26 21:17:17;;;;;;;;;;;;;;;;;;5006678;28;19918;-49
2024/01/26 21:19:45;;;;;;;;;;;;;;;;;;5005789;28;19922;-51
2024/01/26 21:22:11;;;;;;;;;;;;;;;;;;4991518;28;19917;-50
2024/01/26 21:24:37;;;;;;;;;;;;;;;;;;5010212;28;19944;-50
2024/01/26 21:27:03;;;;;;;;;;;;;;;;;;4989438;28;20075;-47
2024/01/26 21:29:29;;;;;;;;;;;;;;;;;;5006736;28;19914;-47
2024/01/26 21:31:55;;;;;;;;;;;;;;;;;;5007884;28;19913;-49
2024/01/26 21:34:21;;;;;;;;;;;;;;;;;;5009763;28;20309;-50
2024/01/26 21:36:46;;;;;;;;;;;;;;;;;;5008469;28;19960;-50
2024/01/26 21:39:13;;;;;;;;;;;;;;;;;;5009153;28;20388;-47
2024/01/26 21:41:39;;;;;;;;;;;;;;;;;;5010563;28;20012;-51
2024/01/26 21:44:04;;;;;;;;;;;;;;;;;;4988722;28;19921;-51
2024/01/26 21:46:30;;;;;;;;;;;;;;;;;;5004091;28;19913;-51
2024/01/26 21:48:57;;;;;;;;;;;;;;;;;;5006406;28;19920;-50
2024/01/26 21:51:23;;;;;;;;;;;;;;;;;;5008162;28;19918;-49
2024/01/26 21:53:49;;;;;;;;;;;;;;;;;;5009737;28;19913;-49
2024/01/26 21:56:15;;;;;;;;;;;;;;;;;;5009414;28;20008;-48
2024/01/26 21:58:41;;;;;;;;;;;;;;;;;;5010638;28;20411;-48
2024/01/26 22:01:12;;;;;;;;;;;;;;;;;;5010751;28;20269;-50
2024/01/26 22:03:38;;;;;;;;;;;;;;;;;;5010673;28;20370;-47
2024/01/26 22:06:04;;;;;;;;;;;;;;;;;;5010308;28;20281;-49
2024/01/26 22:08:30;;;;;;;;;;;;;;;;;;5010366;28;19967;-50
2024/01/26 22:10:56;;;;;;;;;;;;;;;;;;5009619;28;19917;-47
2024/01/26 22:13:24;;;;;;;;;;;;;;;;;;5009765;28;19913;-48
2024/01/26 22:15:50;;;;;;;;;;;;;;;;;;5009969;28;19910;-52
2024/01/26 22:18:18;;;;;;;;;;;;;;;;;;5006485;28;19982;-51
2024/01/26 22:20:44;;;;;;;;;;;;;;;;;;5009144;28;20407;-50
2024/01/26 22:23:10;;;;;;;;;;;;;;;;;;5009900;28;19917;-50
2024/01/26 22:25:36;;;;;;;;;;;;;;;;;;5008506;28;19956;-49
2024/01/26 22:28:01;;;;;;;;;;;;;;;;;;5002579;28;19918;-50
2024/01/26 22:30:27;;;;;;;;;;;;;;;;;;5007167;28;19940;-47
2024/01/26 22:32:54;;;;;;;;;;;;;;;;;;5008285;28;19913;-50
2024/01/26 22:35:20;;;;;;;;;;;;;;;;;;5009954;28;19929;-51
2024/01/26 22:37:46;;;;;;;;;;;;;;;;;;5010818;28;20265;-52